Flight Track Log - Related Links

Times and Time Zones

All times are in EDT time to prevent confusion due to time zone crossing. See the SWA2182 flight status page for this flight to view local times or setup timezone preferences in your user account.

Time Position Orientation Groundspeed Altitude Reporting Facility
EDT Latitude Longitude Course Direction KTS MPH feet Rate Location/Type
Tue 09:16:36 PM 42.3667 -70.9833 90° East 131 151 1,300  Level KA90
Tue 09:17:06 PM 42.3667 -70.9500 90° East 169 194 1,900 2,929 Climbing KA90
Tue 09:18:00 PM 42.3833 -70.8667 75° East 250 288 5,400 3,662 Climbing KA90
Tue 09:18:23 PM 42.3850 -70.8519 81° East 321 369 6,600 3,929 Climbing Boston Center
Tue 09:19:24 PM 42.3586 -70.7486 109° East 295 339 10,900 4,185 Climbing Boston Center
Tue 09:20:22 PM 42.2689 -70.7428 177° South 241 277 14,900 4,286 Climbing Boston Center
Tue 09:21:23 PM 42.2119 -70.8394 232° Southwest 227 261 19,400 3,699 Climbing Boston Center
Tue 09:22:35 PM 42.1931 -70.9858 260° West 280 322 23,100 2,932 Climbing Boston Center
Tue 09:23:36 PM 42.1758 -71.1150 260° West 323 372 25,900 1,765 Climbing Boston Center
Tue 09:24:34 PM 42.1547 -71.2667 259° West 364 419 26,600 1,008 Climbing Boston Center
Tue 09:25:35 PM 42.1372 -71.4014 260° West 377 434 27,900 639 Climbing Boston Center
Tue 09:26:36 PM 42.1175 -71.5417 259° West 377 434 27,900 750 Level Boston Center
Tue 09:27:35 PM 42.0936 -71.6819 257° West 377 434 29,400 2,017 Climbing Boston Center
Tue 09:28:35 PM 42.0717 -71.8275 259° West 388 447 31,900 1,289 Climbing Boston Center
Tue 09:29:36 PM 42.0514 -71.9703 259° West 393 452 32,000 -298 Climbing Boston Center
Tue 09:30:36 PM 41.9978 -72.0992 241° Southwest 393 452 31,300 -814 Descending Boston Center
Tue 09:31:34 PM 41.9375 -72.2308 238° Southwest 393 452 30,400 -655 Descending Boston Center
Tue 09:32:35 PM 41.8731 -72.3619 237° Southwest 414 476 30,000 -197 Descending Boston Center
Tue 09:33:36 PM 41.8106 -72.4958 238° Southwest 428 493 30,000  Level Boston Center
Tue 09:34:36 PM 41.7500 -72.6264 238° Southwest 428 493 30,000  Level Boston Center
Tue 09:35:34 PM 41.6850 -72.7597 237° Southwest 428 493 30,000  Level Boston Center
Tue 09:36:34 PM 41.6200 -72.8900 236° Southwest 434 499 30,000  Level Boston Center
Tue 09:37:35 PM 41.5569 -73.0197 237° Southwest 434 499 30,000 -50 Level Boston Center
Tue 09:38:35 PM 41.5022 -73.1331 237° Southwest 434 499 29,900 -50 Descending Boston Center
Tue 09:39:36 PM 41.4386 -73.2653 237° Southwest 434 499 29,900  Level Boston Center
Tue 09:41:41 PM 41.2975 -73.5519 237° Southwest 426 490 29,900 -194 Level New York Center
Tue 09:42:42 PM 41.2258 -73.6786 233° Southwest 431 496 29,300 -807 Descending New York Center
Tue 09:43:40 PM 41.1517 -73.8050 232° Southwest 436 502 28,300 -1,008 Descending New York Center
Tue 09:44:41 PM 41.0778 -73.9283 232° Southwest 441 507 27,300 -1,082 Descending New York Center
Tue 09:45:42 PM 41.0036 -74.0458 230° Southwest 429 494 26,100 -694 Descending New York Center
Tue 09:46:42 PM 40.9403 -74.1553 233° Southwest 412 474 25,900 -100 Descending New York Center
Tue 09:47:42 PM 40.8703 -74.2697 231° Southwest 406 467 25,900 50 Level New York Center
Tue 09:48:41 PM 40.8000 -74.3842 231° Southwest 406 467 26,000  Climbing New York Center
Tue 09:49:42 PM 40.7275 -74.5033 231° Southwest 411 473 25,900 -51 Descending New York Center
Tue 09:50:39 PM 40.6550 -74.6281 233° Southwest 417 480 25,900  Level New York Center
Tue 09:51:40 PM 40.5822 -74.7442 230° Southwest 422 486 25,900  Level New York Center
Tue 09:52:40 PM 40.5058 -74.8461 225° Southwest 433 498 25,900  Level New York Center
Tue 09:53:41 PM 40.4267 -74.9669 229° Southwest 438 504 25,900  Level New York Center
Tue 09:54:41 PM 40.3453 -75.0792 226° Southwest 438 504 25,900 -1,150 Level New York Center
Tue 09:55:41 PM 40.2661 -75.1939 228° Southwest 432 497 23,600 -2,924 Descending New York Center
Tue 09:56:40 PM 40.1889 -75.3031 227° Southwest 422 486 20,100 -2,800 Descending New York Center
Tue 09:57:41 PM 40.1100 -75.4039 224° Southwest 409 471 18,000 -1,041 Descending New York Center
Tue 09:58:41 PM 40.0308 -75.5122 226° Southwest 386 444 18,000  Level New York Center
Tue 09:59:40 PM 39.9600 -75.6133 228° Southwest 379 436 18,000  Level New York Center
Tue 10:00:40 PM 39.8931 -75.7167 230° Southwest 379 436 18,000 -98 Level New York Center
Tue 10:01:42 PM 39.8339 -75.8317 236° Southwest 379 436 17,800 -1,361 Descending New York Center
Tue 10:02:39 PM 39.7861 -75.9256 237° Southwest 374 430 15,300 -2,521 Descending New York Center
Tue 10:03:41 PM 39.7250 -76.0369 235° Southwest 362 417 12,800 -1,277 Descending New York Center
Tue 10:05:14 PM 39.6500 -76.1667 233° Southwest 266 306 12,000 -1,020 Descending Potomac TRACON
Tue 10:06:14 PM 39.6167 -76.2500 243° Southwest 266 306 10,200 -1,800 Descending Potomac TRACON
Tue 10:07:14 PM 39.5833 -76.3333 243° Southwest 258 297 8,400 -1,850 Descending Potomac TRACON
Tue 10:08:14 PM 39.5667 -76.4167 255° West 255 293 6,500 -1,700 Descending Potomac TRACON
Tue 10:09:14 PM 39.5333 -76.5000 243° Southwest 255 293 5,000 -714 Descending Potomac TRACON
Tue 10:10:20 PM 39.5000 -76.6000 247° West 243 280 5,000  Level Potomac TRACON
Tue 10:11:20 PM 39.4667 -76.6667 237° Southwest 243 280 5,000 -526 Level Potomac TRACON
Tue 10:12:14 PM 39.4167 -76.7333 226° Southwest 245 282 4,000 -500 Descending Potomac TRACON
Tue 10:13:20 PM 39.3667 -76.7667 207° Southwest 242 278 4,000 -455 Level Potomac TRACON
Tue 10:14:26 PM 39.3000 -76.8167 210° Southwest 237 273 3,000 -909 Descending Potomac TRACON

Login

Don't have an account? Register now (free) for customized features, flight alerts, and more!